Pagrindinis puslapis
METAR-TAF:

METAR-TAF

Oro uostai :

Meriden-Markham Municipal Airport

Meriden, Konektikutas, Jungtinės Amerikos Valstijos

platuma: 41-30-35N, ilguma: 072-49-40W, Aukštis: 31 m

Dabartinis oras

Ataskaita buvo paskelbta 9 minutes, ne 06:53 UTC
Vėjas 10 kt iš Vakarų/Pietvakarių su gūsio iki 24 kt, svyruoja nuo Pietvakarių ir Vakarų/Šiaurės Vakarų
Temperatūra -1°C
Drėgmė 36%
Slėgis 1008 hPa
Matomumas: 16.1 km
Išsisklaidę debesys ne aukštis 6500 ft

METAR: KMMK 280653Z AUTO 25010G24KT 220V290 10SM SCT065 M01/M14 A2976 RMK AO2 PK WND 26028/0555 SNE01 SLP080 P0000 T10111144

Laikas: 02:02 (07:02 UTC)


TAF: trūkstamas

Orai ataskaitas ir orų prognozės (METAR, TAF).

turimą stotys yra geltonos ir raudonos taškus žemėlapyje.

Perkelti pele per norėdami pamatyti stoties vardą.

Tada spustelėkite, norėdami matyti oro stebėjimo ir prognozės.

Norėdami pakeisti žemėlapį: spustelėkite ant žalios mygtukų su juodo kryžiaus žemyn,; žalią mygtuką su brūkšneliu, jei norite nutolinti; arba žalių rodyklių gretimoms žemėlapius.


METAR-TAF: